Salt Lake City International Airport
KSLC : now visible

Airfield :











YOU CAN JOIN US ON...

 
LOGIN :

Register | Disclaimer

   EN    FR    IT 

 









Legend :    VFR   Marginal VFR   IFR   Intensive IFR   Very Intensive IFR
Visi :
Ceiling :
>= 8 km
>= 3000ft
5 to 8 km
1000 to 3000 ft
1500m to 5 km
500 to 1000 ft
800 to 1500m
200 to 500 ft
< 800m
< 200 ft
Symbols :   Thunderstorms  Fog  Heavy snow  Heavy precipitations  Wind > 20 kt






- Airport Elevation : 4227 ft
- IATA code : SLC


KSLC - Salt Lake City International

CURRENT METAR :
  • 221254Z 20003KT 10SM FEW050 04/M01 A2980 RMK AO2 SLP075 T00391011

EXPIRED METARs :
  • 221154Z 34003KT 10SM FEW085 SCT120 03/M02 A2979 RMK AO2 SLP070 T00281017 10094 20028 53003
  • 221054Z 27003KT 10SM FEW085 SCT120 06/M01 A2978 RMK AO2 SLP065 T00611011

TAF KSLC
Valid from the 22 at 12:00 until the 23 at 18:00 UTC


221120Z 2212/2318 15006KT P6SM FEW150
FM221700 32008KT P6SM FEW080 SCT140
FM230300 14006KT P6SM SCT090 BKN120
FM231500 34007KT P6SM VCSH BKN060 OVC100
KZLC FIR / North America



MET'MAP, your aeronautical weather chart ! - Copyright ORBIFLY December 2007 - Disclaimer

ORBIFLY MET'MAP TEAM :

Programming & Development : Alexandra Zaïnal
Concept & original design : Baudouin d'Aumeries
Assistance for programming : Marc-Olivier Méhu
Technical & hardware support : Manuel Goepfert

Contact : metmap@orbifly.com




SOURCES & CREDITS :

   NOAA       Earth
Advisory